Time;durP1;ratioP1;P1;durP2;ratioP2;P2;SDS_P1;SDS_P2;PMS_P1;PMS_P2;Temp;Humidity;BMP_temperature;BMP_pressure;BME280_temperature;BME280_humidity;BME280_pressure;Samples;Min_cycle;Max_cycle;Signal;HPM_P1;HPM_P2
2023/05/17 00:01:51;;;;;;;1.88;0.57;;;;;;;18.10;56.42;102438.13;6122303;23;20010;-57
2023/05/17 00:04:17;;;;;;;2.75;0.88;;;;;;;18.09;56.25;102431.03;6122922;23;20018;-57
2023/05/17 00:06:43;;;;;;;1.83;0.68;;;;;;;18.08;56.09;102430.16;6124110;23;20118;-56
2023/05/17 00:09:08;;;;;;;1.33;0.80;;;;;;;18.09;56.40;102433.72;6124394;23;20025;-57
2023/05/17 00:11:34;;;;;;;1.42;0.70;;;;;;;18.08;56.45;102445.47;6124627;23;20009;-56
2023/05/17 00:14:00;;;;;;;1.05;0.70;;;;;;;18.07;56.34;102447.31;6125049;23;20422;-57
2023/05/17 00:16:25;;;;;;;1.42;0.80;;;;;;;18.07;56.30;102449.16;6124516;23;20034;-56
2023/05/17 00:18:51;;;;;;;1.92;0.65;;;;;;;18.07;56.40;102446.47;6124245;23;20014;-57
2023/05/17 00:21:16;;;;;;;1.33;0.60;;;;;;;18.07;56.41;102446.47;6124484;23;20332;-57
2023/05/17 00:23:42;;;;;;;0.70;0.60;;;;;;;18.07;56.23;102449.16;6124081;23;20477;-57
2023/05/17 00:26:07;;;;;;;1.08;0.50;;;;;;;18.07;56.41;102450.00;6124368;23;20433;-57
2023/05/17 00:28:33;;;;;;;1.60;0.80;;;;;;;18.06;56.37;102436.63;6124587;23;20010;-57
2023/05/17 00:30:58;;;;;;;2.22;0.82;;;;;;;18.06;56.27;102444.72;6124910;23;20006;-56
2023/05/17 00:33:23;;;;;;;1.88;0.75;;;;;;;18.05;56.26;102443.88;6124109;23;20001;-56
2023/05/17 00:35:49;;;;;;;1.42;0.70;;;;;;;18.05;56.10;102437.59;6124099;23;20037;-57
2023/05/17 00:38:14;;;;;;;0.60;0.60;;;;;;;18.05;56.25;102443.88;6124173;23;20016;-57
2023/05/17 00:40:39;;;;;;;1.95;0.70;;;;;;;18.05;56.23;102449.25;6123907;23;20006;-56
2023/05/17 00:43:05;;;;;;;3.72;0.80;;;;;;;18.04;56.04;102441.28;6124012;23;20006;-56
2023/05/17 00:45:30;;;;;;;0.82;0.60;;;;;;;18.04;56.06;102433.19;6125050;23;20333;-56
2023/05/17 00:47:56;;;;;;;1.15;0.70;;;;;;;18.04;56.16;102433.19;6123894;23;20069;-57
2023/05/17 00:50:21;;;;;;;1.67;0.93;;;;;;;18.03;56.00;102434.13;6098256;23;20012;-57
2023/05/17 00:52:46;;;;;;;1.33;0.70;;;;;;;18.02;56.08;102441.38;6124088;23;20008;-56
2023/05/17 00:55:12;;;;;;;1.50;0.73;;;;;;;18.02;55.99;102432.44;6124172;23;20064;-57
2023/05/17 00:57:38;;;;;;;0.60;0.60;;;;;;;18.02;56.00;102432.44;6124287;23;20013;-57
2023/05/17 01:00:04;;;;;;;1.38;0.80;;;;;;;18.02;56.12;102432.44;6124461;23;20010;-57
2023/05/17 01:02:30;;;;;;;0.75;0.60;;;;;;;18.01;56.06;102426.19;6124480;23;20010;-57
2023/05/17 01:04:56;;;;;;;1.58;0.68;;;;;;;18.01;56.04;102434.28;6123970;23;20340;-57
2023/05/17 01:07:21;;;;;;;1.52;0.77;;;;;;;18.01;55.86;102441.47;6123629;23;20309;-56
2023/05/17 01:09:47;;;;;;;0.73;0.73;;;;;;;18.01;56.09;102436.09;6098077;23;20073;-57
2023/05/17 01:13:04;;;;;;;1.05;0.70;;;;;;;18.03;56.16;102431.44;6124023;23;20439;-57
2023/05/17 01:15:37;;;;;;;0.70;0.60;;;;;;;18.01;55.92;102430.69;6104052;23;20069;-57
2023/05/17 01:18:14;;;;;;;1.73;0.90;;;;;;;17.98;55.84;102427.25;6124040;23;20369;-57
2023/05/17 01:20:43;;;;;;;1.48;0.77;;;;;;;17.98;55.81;102437.16;6123803;23;20006;-56
2023/05/17 01:23:40;;;;;;;2.05;0.70;;;;;;;18.01;56.13;102441.47;6123751;23;20349;-57
2023/05/17 01:26:12;;;;;;;1.27;0.85;;;;;;;17.97;55.96;102439.00;6123650;23;20005;-57
2023/05/17 01:28:39;;;;;;;2.83;0.95;;;;;;;17.96;55.66;102439.13;6123699;23;20444;-57
2023/05/17 01:31:07;;;;;;;1.10;0.75;;;;;;;17.95;55.79;102438.25;6098434;23;20332;-56
2023/05/17 01:33:33;;;;;;;0.85;0.75;;;;;;;17.96;55.92;102439.13;6124394;23;20432;-57
2023/05/17 01:35:59;;;;;;;2.00;0.95;;;;;;;17.95;55.79;102434.69;6123570;23;20010;-56
2023/05/17 01:38:24;;;;;;;0.85;0.70;;;;;;;17.95;55.91;102437.38;6123677;23;20440;-56
2023/05/17 01:40:56;;;;;;;2.00;0.90;;;;;;;17.95;55.85;102438.25;6123550;23;20021;-57
2023/05/17 01:43:23;;;;;;;;;;;;;;;18.05;55.83;102435.78;6124323;23;20009;-57
2023/05/17 01:46:27;;;;;;;1.25;0.70;;;;;;;18.00;55.93;102439.75;6123617;23;19912;-57
2023/05/17 01:49:17;;;;;;;2.72;1.08;;;;;;;17.97;55.82;102438.13;6104846;23;20009;-57
2023/05/17 01:51:48;;;;;;;1.15;0.80;;;;;;;17.94;55.73;102436.53;6123662;23;20072;-57
2023/05/17 01:54:17;;;;;;;0.73;0.68;;;;;;;17.94;55.72;102443.75;6123811;23;20005;-57
2023/05/17 01:56:50;;;;;;;1.52;0.70;;;;;;;17.93;55.77;102440.19;6123368;23;20033;-57
2023/05/17 01:59:21;;;;;;;1.83;0.70;;;;;;;17.92;55.89;102438.47;6123357;23;20010;-57
2023/05/17 02:01:48;;;;;;;2.20;0.85;;;;;;;17.93;55.58;102439.31;6123096;23;20002;-56
2023/05/17 02:04:13;;;;;;;1.52;0.93;;;;;;;17.92;55.91;102443.84;6123330;23;20018;-57
2023/05/17 02:06:39;;;;;;;1.88;0.90;;;;;;;17.91;55.58;102442.09;6097622;23;20010;-57
2023/05/17 02:09:04;;;;;;;1.40;0.80;;;;;;;17.91;55.62;102436.72;6123848;23;20021;-57
2023/05/17 02:11:31;;;;;;;1.17;0.80;;;;;;;17.90;55.70;102442.25;6123009;23;20013;-56
2023/05/17 02:13:57;;;;;;;1.65;0.93;;;;;;;17.89;55.52;102433.28;6123138;23;20010;-57
2023/05/17 02:16:23;;;;;;;0.70;0.70;;;;;;;17.90;55.57;102436.84;6123342;23;20077;-57
2023/05/17 02:18:48;;;;;;;3.50;1.08;;;;;;;17.89;55.51;102430.56;6123015;23;20388;-57
2023/05/17 02:21:13;;;;;;;1.33;0.82;;;;;;;17.89;55.50;102432.41;6123300;23;20013;-57
2023/05/17 02:23:39;;;;;;;2.42;0.77;;;;;;;17.88;55.33;102434.25;6123161;23;20081;-57
2023/05/17 02:26:04;;;;;;;2.08;0.90;;;;;;;17.88;55.39;102428.00;6123567;23;20010;-57
2023/05/17 02:28:29;;;;;;;1.55;0.98;;;;;;;17.88;55.68;102433.41;6123110;23;20057;-57
2023/05/17 02:30:55;;;;;;;0.77;0.70;;;;;;;17.88;55.45;102431.56;6123070;23;20425;-57
2023/05/17 02:33:21;;;;;;;2.10;0.88;;;;;;;17.87;55.46;102439.75;6123384;23;20370;-57
2023/05/17 02:35:48;;;;;;;2.10;0.95;;;;;;;17.86;55.39;102438.91;6122918;23;20385;-57
2023/05/17 02:38:14;;;;;;;1.60;0.80;;;;;;;17.86;55.17;102455.06;6123009;23;20037;-57
2023/05/17 02:40:40;;;;;;;1.27;0.80;;;;;;;17.86;55.45;102449.66;6123041;23;20012;-57
2023/05/17 02:43:06;;;;;;;1.70;0.88;;;;;;;17.86;55.47;102448.78;6123688;23;20017;-57
2023/05/17 02:45:31;;;;;;;1.73;0.75;;;;;;;17.85;55.52;102456.03;6123049;23;20085;-57
2023/05/17 02:47:56;;;;;;;1.83;0.80;;;;;;;17.85;55.43;102447.06;6097298;23;20065;-57
2023/05/17 02:50:22;;;;;;;1.45;0.73;;;;;;;17.84;55.33;102448.91;6123178;23;20013;-57
2023/05/17 02:52:47;;;;;;;1.45;0.70;;;;;;;17.85;55.09;102456.03;6122888;23;20034;-57
2023/05/17 02:55:12;;;;;;;1.85;0.88;;;;;;;17.83;55.01;102449.84;6122611;23;20010;-57
2023/05/17 02:57:38;;;;;;;1.23;0.88;;;;;;;17.84;55.19;102448.91;6123917;23;20010;-57
2023/05/17 03:00:04;;;;;;;2.05;1.00;;;;;;;17.83;55.09;102463.31;6123141;23;20014;-57
2023/05/17 03:02:30;;;;;;;0.90;0.65;;;;;;;17.83;55.29;102462.47;6122799;23;20020;-57
2023/05/17 03:04:55;;;;;;;1.70;0.80;;;;;;;17.83;55.29;102460.63;6122782;23;20391;-57
2023/05/17 03:07:20;;;;;;;2.00;1.25;;;;;;;17.83;55.10;102462.47;6122703;23;20089;-56
2023/05/17 03:09:46;;;;;;;1.27;0.90;;;;;;;17.82;55.22;102469.69;6122886;23;20038;-57
2023/05/17 03:12:11;;;;;;;0.95;0.80;;;;;;;17.83;55.31;102473.22;6122844;23;20707;-57
2023/05/17 03:14:37;;;;;;;2.00;1.00;;;;;;;17.81;55.12;102473.34;6123418;23;20013;-57
2023/05/17 03:17:02;;;;;;;1.52;0.90;;;;;;;17.81;55.16;102478.72;6122872;23;20105;-57
2023/05/17 03:19:27;;;;;;;1.23;0.85;;;;;;;17.81;54.95;102478.72;6122893;23;20010;-57
2023/05/17 03:21:53;;;;;;;2.35;0.90;;;;;;;17.80;55.13;102479.72;6096730;23;20259;-57
2023/05/17 03:24:18;;;;;;;2.60;0.90;;;;;;;17.79;54.96;102480.66;6122801;23;20060;-57
2023/05/17 03:26:43;;;;;;;2.10;1.05;;;;;;;17.80;55.06;102479.72;6122864;23;20017;-57
2023/05/17 03:29:09;;;;;;;3.47;1.00;;;;;;;17.79;55.09;102469.88;6123474;23;20089;-57
2023/05/17 03:31:34;;;;;;;1.63;1.10;;;;;;;17.78;54.85;102478.91;6123076;23;20025;-57
2023/05/17 03:34:00;;;;;;;1.80;1.02;;;;;;;17.78;55.04;102477.13;6122728;23;20012;-57
2023/05/17 03:36:25;;;;;;;2.80;1.10;;;;;;;17.78;54.86;102478.91;6122663;23;20013;-57
2023/05/17 03:38:51;;;;;;;2.10;1.17;;;;;;;17.77;55.08;102488.84;6122663;23;20093;-57
2023/05/17 03:41:16;;;;;;;1.52;1.00;;;;;;;17.77;55.07;102488.00;6124019;23;20006;-57
2023/05/17 03:43:41;;;;;;;1.52;1.05;;;;;;;17.76;55.00;102489.81;6124674;23;20030;-57
2023/05/17 03:46:07;;;;;;;1.25;0.77;;;;;;;17.76;54.83;102494.34;6125223;23;20041;-57
2023/05/17 03:48:32;;;;;;;2.67;0.95;;;;;;;17.77;54.88;102490.69;6124518;23;20016;-57
2023/05/17 03:50:58;;;;;;;1.90;1.10;;;;;;;17.76;54.76;102487.13;6124565;23;20100;-57
2023/05/17 03:53:23;;;;;;;2.28;1.00;;;;;;;17.74;54.68;102494.47;6124888;23;20010;-57
2023/05/17 03:55:48;;;;;;;3.55;1.23;;;;;;;17.75;54.83;102487.22;6124485;23;20089;-57
2023/05/17 03:58:14;;;;;;;1.48;0.80;;;;;;;17.75;54.81;102495.31;6124500;23;20372;-57
2023/05/17 04:00:39;;;;;;;1.40;1.00;;;;;;;17.74;54.67;102502.53;6125049;23;20017;-57
2023/05/17 04:03:05;;;;;;;2.55;1.20;;;;;;;17.75;54.84;102498.00;6124119;23;20094;-57
2023/05/17 04:05:31;;;;;;;1.48;1.02;;;;;;;17.74;54.62;102507.94;6124548;23;20085;-57
2023/05/17 04:07:57;;;;;;;2.67;1.30;;;;;;;17.74;54.70;102501.66;6124324;23;20028;-57
2023/05/17 04:10:22;;;;;;;1.42;0.95;;;;;;;17.73;54.85;102506.19;6124387;23;20017;-57
2023/05/17 04:12:48;;;;;;;2.67;1.25;;;;;;;17.73;54.84;102502.63;6124442;23;20013;-57
2023/05/17 04:15:14;;;;;;;2.42;0.88;;;;;;;17.73;54.58;102508.03;6124281;23;20025;-57
2023/05/17 04:17:39;;;;;;;2.05;0.93;;;;;;;17.73;54.61;102508.03;6124800;23;20006;-57
2023/05/17 04:20:05;;;;;;;1.13;1.00;;;;;;;17.72;54.59;102507.16;6124283;23;20333;-57
2023/05/17 04:22:31;;;;;;;2.20;1.23;;;;;;;17.72;54.67;102514.38;6124040;23;20013;-57
2023/05/17 04:24:57;;;;;;;1.20;1.08;;;;;;;17.72;54.63;102512.53;6124440;23;20056;-57
2023/05/17 04:27:22;;;;;;;1.13;0.95;;;;;;;17.72;54.55;102520.63;6124262;23;20487;-57
2023/05/17 04:29:47;;;;;;;1.25;1.00;;;;;;;17.72;54.68;102517.91;6124250;23;20016;-57
2023/05/17 04:32:13;;;;;;;2.35;1.00;;;;;;;17.71;54.51;102518.91;6124774;23;20013;-57
2023/05/17 04:34:38;;;;;;;1.95;0.80;;;;;;;17.71;54.49;102521.59;6124469;23;20015;-57
2023/05/17 04:37:04;;;;;;;1.73;1.00;;;;;;;17.71;54.75;102524.28;6124206;23;20017;-57
2023/05/17 04:39:30;;;;;;;2.50;1.40;;;;;;;17.70;54.68;102525.25;6124171;23;20038;-57
2023/05/17 04:41:55;;;;;;;2.00;1.10;;;;;;;17.70;54.73;102525.25;6124028;23;20013;-57
2023/05/17 04:44:21;;;;;;;1.73;0.93;;;;;;;17.71;54.64;102534.22;6124173;23;20381;-57
2023/05/17 04:46:46;;;;;;;1.63;0.90;;;;;;;17.71;54.50;102547.69;6123553;23;20032;-57
2023/05/17 04:49:11;;;;;;;2.67;1.38;;;;;;;17.70;54.38;102540.56;6124817;23;20006;-57
2023/05/17 04:51:37;;;;;;;1.75;1.00;;;;;;;17.69;54.34;102539.69;6123206;23;20080;-57
2023/05/17 04:54:05;;;;;;;1.58;1.17;;;;;;;17.70;54.39;102545.94;6123844;23;20010;-57
2023/05/17 04:56:32;;;;;;;1.45;0.98;;;;;;;17.68;54.41;102553.25;6123655;23;20065;-56
2023/05/17 04:58:57;;;;;;;2.97;1.20;;;;;;;17.70;54.42;102556.72;6123875;23;20443;-57
2023/05/17 05:01:22;;;;;;;4.65;1.38;;;;;;;17.69;54.51;102558.56;6123722;23;20010;-57
2023/05/17 05:03:48;;;;;;;2.05;1.00;;;;;;;17.69;54.52;102555.88;6123392;23;20014;-56
2023/05/17 05:06:15;;;;;;;1.65;1.20;;;;;;;17.69;54.46;102557.69;6124354;23;20014;-57
2023/05/17 05:08:40;;;;;;;2.75;1.33;;;;;;;17.69;54.47;102565.78;6124328;23;20021;-57
2023/05/17 05:11:06;;;;;;;1.00;0.73;;;;;;;17.68;54.53;102562.19;6123991;23;20010;-57
2023/05/17 05:13:31;;;;;;;1.52;0.82;;;;;;;17.68;54.43;102569.44;6123765;23;20004;-56
2023/05/17 05:15:57;;;;;;;1.65;1.08;;;;;;;17.68;54.35;102569.44;6123702;23;20006;-57
2023/05/17 05:18:22;;;;;;;1.63;1.00;;;;;;;17.68;54.32;102575.66;6123779;23;20014;-57
2023/05/17 05:20:48;;;;;;;1.90;1.02;;;;;;;17.68;54.41;102581.06;6123784;23;20006;-57
2023/05/17 05:23:14;;;;;;;2.17;1.13;;;;;;;17.67;54.38;102579.34;6124308;23;20097;-57
2023/05/17 05:25:39;;;;;;;1.42;1.20;;;;;;;17.69;54.53;102581.94;6097552;23;20002;-57
2023/05/17 05:28:04;;;;;;;2.28;1.00;;;;;;;17.68;54.33;102590.97;6123518;23;20010;-57
2023/05/17 05:30:33;;;;;;;1.02;0.90;;;;;;;17.69;54.40;102595.41;6123648;23;20018;-56
2023/05/17 05:32:59;;;;;;;3.05;1.05;;;;;;;17.67;54.49;102592.81;6124144;23;20077;-57
2023/05/17 05:35:28;;;;;;;0.90;0.80;;;;;;;17.67;54.62;102594.63;6124405;23;20017;-56
2023/05/17 05:37:54;;;;;;;3.30;1.20;;;;;;;17.67;54.48;102589.22;6124369;23;20018;-57
2023/05/17 05:40:19;;;;;;;1.40;1.05;;;;;;;17.68;54.33;102593.66;6124201;23;20406;-57
2023/05/17 05:42:45;;;;;;;1.45;0.80;;;;;;;17.67;54.33;102597.31;6124880;23;20013;-56
2023/05/17 05:45:10;;;;;;;2.67;1.13;;;;;;;17.67;54.44;102592.81;6098463;23;20382;-57
2023/05/17 05:47:36;;;;;;;5.10;1.13;;;;;;;17.67;54.35;102603.59;6123956;23;20041;-57
2023/05/17 05:50:01;;;;;;;1.40;0.80;;;;;;;17.66;54.15;102598.31;6124338;23;20010;-56
2023/05/17 05:52:27;;;;;;;2.47;0.95;;;;;;;17.67;54.24;102605.41;6124071;23;20005;-57
2023/05/17 05:54:52;;;;;;;1.85;1.02;;;;;;;17.65;54.61;102597.44;6124126;23;20314;-56
2023/05/17 05:57:17;;;;;;;2.00;1.23;;;;;;;17.65;54.24;102607.34;6124380;23;20129;-56
2023/05/17 05:59:43;;;;;;;2.08;1.02;;;;;;;17.66;54.40;102611.78;6124349;23;20394;-57
2023/05/17 06:02:08;;;;;;;1.98;1.27;;;;;;;17.65;54.41;102610.91;6097802;23;20016;-57
2023/05/17 06:04:34;;;;;;;2.85;1.02;;;;;;;17.64;54.32;102622.63;6123960;23;20040;-57
2023/05/17 06:06:59;;;;;;;2.30;1.17;;;;;;;17.65;54.21;102624.38;6124405;23;20032;-57
2023/05/17 06:09:25;;;;;;;1.83;1.08;;;;;;;17.65;54.24;102620.81;6123942;23;20022;-56
2023/05/17 06:11:52;;;;;;;1.85;1.20;;;;;;;17.64;54.39;102622.63;6124015;23;20311;-56
2023/05/17 06:14:17;;;;;;;1.73;1.00;;;;;;;17.65;54.38;102624.38;6124737;23;20026;-57
2023/05/17 06:16:43;;;;;;;1.58;1.10;;;;;;;17.64;54.32;102629.88;6124963;23;20421;-57
2023/05/17 06:19:08;;;;;;;2.38;1.02;;;;;;;17.64;54.25;102637.94;6124845;23;20041;-57
2023/05/17 06:21:33;;;;;;;3.40;1.05;;;;;;;17.63;54.13;102631.69;6124581;23;20037;-57
2023/05/17 06:23:59;;;;;;;2.72;1.58;;;;;;;17.65;54.31;102639.66;6124129;23;20006;-57
2023/05/17 06:26:24;;;;;;;2.20;1.20;;;;;;;17.64;54.31;102648.72;6123985;23;20406;-56
2023/05/17 06:28:50;;;;;;;1.67;1.00;;;;;;;17.63;54.26;102650.56;6124105;23;20082;-56
2023/05/17 06:31:15;;;;;;;1.80;0.98;;;;;;;17.64;54.10;102651.41;6124265;23;20089;-57
2023/05/17 06:33:40;;;;;;;2.08;0.93;;;;;;;17.64;54.26;102654.97;6123498;23;20009;-57
2023/05/17 06:36:06;;;;;;;2.55;1.15;;;;;;;17.64;54.09;102649.56;6123605;23;20013;-57
2023/05/17 06:38:31;;;;;;;1.42;1.00;;;;;;;17.64;53.99;102644.19;6123562;23;20377;-57
2023/05/17 06:40:57;;;;;;;1.85;1.20;;;;;;;17.65;54.00;102653.13;6122884;23;20364;-57
2023/05/17 06:43:23;;;;;;;1.60;0.93;;;;;;;17.64;54.12;102649.56;6122490;23;20052;-57
2023/05/17 06:45:48;;;;;;;3.30;1.20;;;;;;;17.64;54.35;102649.56;6123890;23;20060;-57
2023/05/17 06:48:14;;;;;;;1.33;1.08;;;;;;;17.64;54.28;102659.50;6123128;23;20021;-57
2023/05/17 06:50:39;;;;;;;2.55;1.25;;;;;;;17.64;54.12;102654.97;6123005;23;20070;-57
2023/05/17 06:53:05;;;;;;;3.15;1.50;;;;;;;17.65;54.09;102666.59;6123220;23;20006;-57
2023/05/17 06:55:30;;;;;;;1.83;1.02;;;;;;;17.64;54.35;102663.03;6123178;23;20045;-57
2023/05/17 06:57:56;;;;;;;1.23;0.90;;;;;;;17.64;54.22;102654.97;6123085;23;20089;-57
2023/05/17 07:00:21;;;;;;;1.83;1.10;;;;;;;17.65;53.87;102658.50;6123138;23;20061;-56
2023/05/17 07:02:47;;;;;;;2.75;1.00;;;;;;;17.64;54.33;102662.19;6123615;23;20030;-53
2023/05/17 07:05:12;;;;;;;2.88;1.08;;;;;;;17.65;54.32;102667.47;6123031;23;20430;-57
2023/05/17 07:07:37;;;;;;;1.35;0.88;;;;;;;17.65;54.30;102666.59;6122597;23;20037;-53
2023/05/17 07:10:05;;;;;;;3.25;1.10;;;;;;;17.64;54.26;102660.34;6122804;23;20029;-53
2023/05/17 07:12:30;;;;;;;3.15;1.13;;;;;;;17.64;54.45;102665.75;6122577;23;20002;-53
2023/05/17 07:14:56;;;;;;;2.88;1.30;;;;;;;17.65;54.44;102677.38;6122850;23;20056;-52
2023/05/17 07:17:21;;;;;;;2.80;0.90;;;;;;;17.65;54.32;102669.28;6098316;23;20391;-57
2023/05/17 07:19:49;;;;;;;1.77;0.93;;;;;;;17.65;54.31;102671.97;6125672;23;20080;-57
2023/05/17 07:22:16;;;;;;;1.95;1.00;;;;;;;17.65;54.35;102672.88;6124317;23;20014;-57
2023/05/17 07:24:42;;;;;;;2.45;0.98;;;;;;;17.66;54.20;102673.72;6124658;23;20053;-52
2023/05/17 07:27:08;;;;;;;2.22;1.00;;;;;;;17.66;54.25;102673.72;6125181;23;20009;-57
2023/05/17 07:29:33;;;;;;;4.05;0.90;;;;;;;17.66;54.25;102679.13;6125473;23;20013;-57
2023/05/17 07:31:58;;;;;;;2.67;1.20;;;;;;;17.66;54.30;102679.13;6124629;23;20016;-57
2023/05/17 07:34:24;;;;;;;1.42;1.13;;;;;;;17.67;54.24;102684.41;6124733;23;20018;-57
2023/05/17 07:36:49;;;;;;;2.10;1.00;;;;;;;17.67;54.20;102676.31;6099681;23;20033;-57
2023/05/17 07:39:15;;;;;;;3.13;1.50;;;;;;;17.67;54.29;102688.91;6124822;23;20014;-57
2023/05/17 07:41:40;;;;;;;2.08;1.02;;;;;;;17.67;54.42;102694.28;6124910;23;20029;-57
2023/05/17 07:44:05;;;;;;;1.67;1.08;;;;;;;17.67;54.29;102689.78;6124588;23;20006;-57
2023/05/17 07:46:31;;;;;;;1.67;0.82;;;;;;;17.68;54.08;102687.97;6124444;23;20006;-57
2023/05/17 07:48:56;;;;;;;1.20;0.82;;;;;;;17.67;54.18;102697.88;6124528;23;20390;-57
2023/05/17 07:51:22;;;;;;;2.60;1.30;;;;;;;17.68;54.16;102698.72;6125211;23;20002;-57
2023/05/17 07:53:47;;;;;;;2.30;0.90;;;;;;;17.67;54.21;102695.19;6125436;23;20076;-57
2023/05/17 07:56:12;;;;;;;1.45;0.95;;;;;;;17.67;54.11;102695.19;6124659;23;20042;-57
2023/05/17 07:58:38;;;;;;;2.50;1.10;;;;;;;17.68;54.11;102709.50;6125164;23;20006;-57
2023/05/17 08:01:03;;;;;;;2.20;1.00;;;;;;;17.68;54.27;102698.72;6125173;23;20228;-57
2023/05/17 08:03:29;;;;;;;2.75;1.15;;;;;;;17.68;54.17;102701.44;6124833;23;20052;-57
2023/05/17 08:05:55;;;;;;;1.30;0.93;;;;;;;17.68;53.95;102698.72;6125414;23;20129;-57
2023/05/17 08:08:20;;;;;;;1.25;1.00;;;;;;;17.68;54.22;102704.97;6125269;23;20018;-57
2023/05/17 08:10:46;;;;;;;1.13;0.77;;;;;;;17.69;54.19;102706.72;6125173;23;20014;-57
2023/05/17 08:13:11;;;;;;;1.15;0.60;;;;;;;17.68;54.23;102707.66;6125320;23;20017;-57
2023/05/17 08:15:37;;;;;;;2.47;1.10;;;;;;;17.69;54.02;102712.13;6125076;23;20388;-57
2023/05/17 08:18:02;;;;;;;2.58;1.10;;;;;;;17.69;54.25;102709.41;6125352;23;20018;-57
2023/05/17 08:20:27;;;;;;;1.23;0.93;;;;;;;17.69;54.21;102709.41;6125506;23;20069;-57
2023/05/17 08:22:53;;;;;;;2.08;1.08;;;;;;;17.69;54.28;102708.56;6125654;23;20342;-57
2023/05/17 08:25:19;;;;;;;1.80;0.90;;;;;;;17.68;54.06;102715.75;6125351;23;20006;-57
2023/05/17 08:27:45;;;;;;;3.08;1.20;;;;;;;17.68;53.97;102714.91;6098934;23;20033;-57
2023/05/17 08:30:10;;;;;;;2.40;1.08;;;;;;;17.67;54.31;102714.03;6124711;23;20013;-57
2023/05/17 08:32:36;;;;;;;2.80;1.17;;;;;;;17.67;54.14;102713.16;6098708;23;20306;-57
2023/05/17 08:35:01;;;;;;;2.65;0.90;;;;;;;17.66;54.08;102714.13;6125009;23;20006;-57
2023/05/17 08:37:27;;;;;;;2.22;0.85;;;;;;;17.67;54.07;102713.16;6124777;23;20017;-56
2023/05/17 08:39:52;;;;;;;2.40;1.02;;;;;;;17.67;54.21;102705.97;6125692;23;20016;-57
2023/05/17 08:42:25;;;;;;;1.50;1.10;;;;;;;17.67;54.01;102700.56;6124784;23;20006;-57
2023/05/17 08:44:52;;;;;;;3.55;0.90;;;;;;;17.68;54.07;102704.13;6125479;23;20006;-57
2023/05/17 08:47:28;;;;;;;2.17;1.13;;;;;;;17.67;54.11;102708.66;6124408;23;20017;-57
2023/05/17 08:49:59;;;;;;;3.00;0.90;;;;;;;17.68;53.96;102712.19;6125396;23;20329;-57
2023/05/17 08:52:29;;;;;;;3.17;1.00;;;;;;;17.70;53.92;102718.34;6125351;23;20056;-57
2023/05/17 08:54:54;;;;;;;2.35;0.93;;;;;;;17.70;53.94;102716.53;6126103;23;20010;-56
2023/05/17 08:57:23;;;;;;;5.18;1.10;;;;;;;17.70;54.11;102716.53;6124993;23;20037;-57
2023/05/17 08:59:50;;;;;;;0.77;0.65;;;;;;;17.72;53.96;102719.97;6124710;23;20006;-57
2023/05/17 09:02:16;;;;;;;1.25;0.90;;;;;;;17.72;54.14;102711.03;6124531;23;20040;-57
2023/05/17 09:04:42;;;;;;;2.15;1.10;;;;;;;17.72;54.23;102721.81;6124525;23;20010;-57
2023/05/17 09:07:08;;;;;;;1.50;0.90;;;;;;;17.72;54.08;102719.13;6124911;23;20085;-57
2023/05/17 09:09:34;;;;;;;2.10;1.08;;;;;;;17.73;53.99;102723.56;6124413;23;20030;-57
2023/05/17 09:12:03;;;;;;;3.00;0.98;;;;;;;17.71;54.09;102725.50;6098451;23;20021;-57
2023/05/17 09:14:33;;;;;;;2.17;0.93;;;;;;;17.73;54.14;102726.25;6124850;23;20405;-57
2023/05/17 09:17:00;;;;;;;2.53;0.90;;;;;;;17.73;54.24;102718.16;6124671;23;20006;-57
2023/05/17 09:19:25;;;;;;;1.20;0.95;;;;;;;17.74;54.00;102722.56;6124995;23;20016;-57
2023/05/17 09:21:53;;;;;;;2.17;1.10;;;;;;;17.73;53.97;102718.16;6124602;23;20441;-57
2023/05/17 09:24:27;;;;;;;0.95;0.75;;;;;;;17.72;54.20;102719.13;6124434;23;20020;-57
2023/05/17 09:26:59;;;;;;;1.58;0.70;;;;;;;17.72;54.11;102719.13;6124903;23;20013;-57
2023/05/17 09:29:24;;;;;;;3.40;1.10;;;;;;;17.73;54.00;102723.56;6125041;23;20010;-57
2023/05/17 09:31:50;;;;;;;2.00;0.73;;;;;;;17.72;54.18;102717.28;6124329;23;20487;-57
2023/05/17 09:34:18;;;;;;;3.20;1.00;;;;;;;17.72;54.23;102721.81;6124396;23;20006;-57
2023/05/17 09:36:43;;;;;;;2.78;0.95;;;;;;;17.72;54.20;102716.44;6124426;23;20010;-57
2023/05/17 09:39:11;;;;;;;2.20;0.98;;;;;;;17.72;54.04;102717.28;6124119;23;20017;-57
2023/05/17 09:41:41;;;;;;;2.53;0.88;;;;;;;17.72;54.30;102721.81;6124359;23;20006;-57
2023/05/17 09:44:08;;;;;;;2.30;0.93;;;;;;;17.73;54.29;102724.41;6124311;23;20009;-57
2023/05/17 09:46:35;;;;;;;2.05;0.70;;;;;;;17.73;54.08;102712.78;6124401;23;20349;-56
2023/05/17 09:49:01;;;;;;;2.13;0.85;;;;;;;17.73;53.84;102719.03;6124250;23;20009;-57
2023/05/17 09:51:42;;;;;;;2.13;1.00;;;;;;;17.74;54.26;102715.38;6124531;23;20045;-57
2023/05/17 09:54:09;;;;;;;1.15;0.70;;;;;;;17.73;54.14;102712.78;6123974;23;20049;-57
2023/05/17 09:56:34;;;;;;;1.75;0.90;;;;;;;17.73;54.33;102721.72;6124249;23;20018;-57
2023/05/17 09:59:00;;;;;;;2.78;1.02;;;;;;;17.73;54.18;102716.34;6124082;23;20012;-57
2023/05/17 10:01:28;;;;;;;0.88;0.75;;;;;;;17.74;54.23;102714.50;6124603;23;20006;-57
2023/05/17 10:03:54;;;;;;;3.45;0.90;;;;;;;17.75;54.35;102717.09;6124262;23;20006;-57
2023/05/17 10:06:22;;;;;;;1.98;0.70;;;;;;;17.75;54.40;102717.09;6124214;23;20010;-57
2023/05/17 10:08:53;;;;;;;2.22;0.82;;;;;;;17.74;54.31;102717.19;6123648;23;20126;-57
2023/05/17 10:11:25;;;;;;;1.83;1.00;;;;;;;17.74;54.38;102720.78;6124448;23;20084;-57
2023/05/17 10:14:37;;;;;;;2.35;0.80;;;;;;;17.76;54.41;102716.16;6124455;23;20077;-56
2023/05/17 10:17:03;;;;;;;3.10;0.85;;;;;;;17.75;54.23;102719.78;6117882;23;20069;-57
2023/05/17 10:19:29;;;;;;;1.95;0.90;;;;;;;17.75;54.15;102727.00;6123531;23;20080;-57
2023/05/17 10:21:57;;;;;;;1.75;0.90;;;;;;;17.76;54.44;102723.34;6123521;23;20486;-57
2023/05/17 10:24:23;;;;;;;2.50;0.88;;;;;;;17.76;54.31;102715.25;6123110;23;20089;-57
2023/05/17 10:26:50;;;;;;;1.48;0.75;;;;;;;17.77;54.29;102723.25;6123435;23;20013;-57
2023/05/17 10:29:15;;;;;;;0.68;0.60;;;;;;;17.77;54.39;102725.94;6123051;23;20006;-57
2023/05/17 10:31:42;;;;;;;1.42;0.70;;;;;;;17.76;54.54;102710.75;6123067;23;20057;-57
2023/05/17 10:34:10;;;;;;;3.38;0.90;;;;;;;17.77;54.59;102717.84;6122120;23;20310;-57
2023/05/17 10:36:36;;;;;;;2.67;0.80;;;;;;;17.77;54.30;102719.69;6123427;23;20002;-57
2023/05/17 10:39:02;;;;;;;1.92;0.90;;;;;;;17.77;54.50;102707.09;6123028;23;20013;-57
2023/05/17 10:41:33;;;;;;;2.53;0.80;;;;;;;17.78;54.59;102707.94;6122909;23;20005;-57
2023/05/17 10:44:02;;;;;;;1.85;0.70;;;;;;;17.78;54.45;102711.53;6097251;23;20106;-57
2023/05/17 10:46:29;;;;;;;3.33;1.00;;;;;;;17.79;54.51;102717.75;6097950;23;20106;-57
2023/05/17 10:48:57;;;;;;;2.28;0.90;;;;;;;17.79;54.35;102704.28;6122466;23;20009;-57
2023/05/17 10:51:25;;;;;;;1.95;0.90;;;;;;;17.79;54.48;102715.06;6122742;23;20002;-57
2023/05/17 10:54:11;;;;;;;2.17;0.75;;;;;;;17.83;54.62;102702.28;6123076;23;20006;-57
2023/05/17 10:57:03;;;;;;;3.33;0.88;;;;;;;17.83;54.71;102703.13;6123758;23;20006;-57
2023/05/17 10:59:30;;;;;;;1.95;0.65;;;;;;;17.81;54.52;102699.66;6119426;23;20010;-57
2023/05/17 11:02:02;;;;;;;1.92;1.00;;;;;;;17.80;54.66;102706.03;6123651;23;20081;-57
2023/05/17 11:04:41;;;;;;;2.67;1.15;;;;;;;17.83;54.69;102694.19;6124074;23;20001;-57
2023/05/17 11:07:15;;;;;;;1.38;0.60;;;;;;;17.83;54.57;102692.34;6123121;23;20005;-57
2023/05/17 11:09:41;;;;;;;1.65;0.60;;;;;;;17.83;54.58;102680.72;6122383;23;20452;-56
2023/05/17 11:12:11;;;;;;;1.38;0.80;;;;;;;17.83;54.63;102686.97;6122804;23;20006;-57
2023/05/17 11:14:53;;;;;;;2.17;0.75;;;;;;;17.84;54.71;102696.81;6122642;23;20006;-57
2023/05/17 11:17:43;;;;;;;1.98;0.73;;;;;;;17.85;54.55;102695.84;6122430;23;20006;-56
2023/05/17 11:20:30;;;;;;;1.33;0.80;;;;;;;17.86;54.89;102686.81;6122379;23;20076;-56
2023/05/17 11:23:00;;;;;;;1.90;0.80;;;;;;;17.83;54.82;102689.66;6123169;23;20090;-57
2023/05/17 11:25:37;;;;;;;2.67;1.10;;;;;;;17.85;54.73;102697.69;6123106;23;20432;-57